createdAt,value
2022-09-23T00:02:28.498Z,10.41
2022-09-23T00:04:58.429Z,10.42
2022-09-23T00:07:27.808Z,10.69
2022-09-23T00:15:38.452Z,11.29
2022-09-23T00:18:08.994Z,11.14
2022-09-23T00:20:35.634Z,11.18
2022-09-23T00:23:02.253Z,11.10
2022-09-23T00:25:31.911Z,11.08
2022-09-23T00:28:02.477Z,10.97
2022-09-23T00:30:28.981Z,9.51
2022-09-23T00:32:56.055Z,10.99
2022-09-23T00:35:25.819Z,11.09
2022-09-23T00:37:52.016Z,10.74
2022-09-23T00:40:18.306Z,10.84
2022-09-23T00:42:47.062Z,10.38
2022-09-23T00:45:17.535Z,10.11
2022-09-23T00:47:47.499Z,10.40
2022-09-23T00:50:20.721Z,10.53
2022-09-23T00:52:56.066Z,10.30
2022-09-23T00:55:27.139Z,10.82
2022-09-23T00:57:55.298Z,10.22
2022-09-23T01:00:22.606Z,9.78
2022-09-23T01:02:52.515Z,10.62
2022-09-23T01:05:19.036Z,10.62
2022-09-23T01:07:45.882Z,10.65
2022-09-23T01:10:14.125Z,10.69
2022-09-23T01:13:00.641Z,10.71
2022-09-23T01:15:47.445Z,10.76
2022-09-23T01:18:31.980Z,10.59
2022-09-23T01:21:15.983Z,10.57
2022-09-23T01:24:14.309Z,10.50
2022-09-23T01:27:05.848Z,10.52
2022-09-23T01:30:21.020Z,10.41
2022-09-23T01:33:21.805Z,10.56
2022-09-23T01:36:02.339Z,9.49
2022-09-23T01:38:48.797Z,10.34
2022-09-23T01:41:27.844Z,10.25
2022-09-23T01:44:01.429Z,10.24
2022-09-23T01:46:41.774Z,10.39
2022-09-23T01:49:27.879Z,10.30
2022-09-23T01:52:15.414Z,10.26
2022-09-23T01:54:54.460Z,10.17
2022-09-23T01:57:31.404Z,9.02
2022-09-23T02:00:09.362Z,9.99
2022-09-23T02:03:04.196Z,10.20
2022-09-23T02:05:37.454Z,10.20
2022-09-23T02:08:20.548Z,10.19
2022-09-23T02:10:55.731Z,9.93
2022-09-23T02:13:33.733Z,9.03
2022-09-23T02:16:08.975Z,10.04
2022-09-23T02:18:49.152Z,10.07
2022-09-23T02:21:21.208Z,9.94
2022-09-23T02:23:53.931Z,9.91
2022-09-23T02:26:28.826Z,9.95
2022-09-23T02:29:07.520Z,8.25
2022-09-23T02:31:41.758Z,9.07
2022-09-23T02:34:32.194Z,9.23
2022-09-23T02:37:10.588Z,9.38
2022-09-23T02:40:03.515Z,9.18
2022-09-23T02:42:38.859Z,9.05
2022-09-23T02:45:08.938Z,9.17
2022-09-23T02:47:43.280Z,9.63
2022-09-23T02:50:09.570Z,9.05
2022-09-23T02:52:44.220Z,9.69
2022-09-23T02:55:16.647Z,9.76
2022-09-23T02:57:43.044Z,9.69
2022-09-23T03:00:10.042Z,9.74
2022-09-23T03:02:42.720Z,9.71
2022-09-23T03:05:18.700Z,9.66
2022-09-23T03:08:06.959Z,9.64
2022-09-23T03:10:47.716Z,9.36
2022-09-23T03:13:33.573Z,9.50
2022-09-23T03:16:09.803Z,9.72
2022-09-23T03:18:50.118Z,9.70
2022-09-23T03:21:54.601Z,9.68
2022-09-23T03:24:24.626Z,9.46
2022-09-23T03:26:55.210Z,9.59
2022-09-23T03:29:25.391Z,9.62
2022-09-23T03:31:56.524Z,9.56
2022-09-23T03:34:33.098Z,9.60
2022-09-23T03:37:07.458Z,9.53
2022-09-23T03:39:39.519Z,9.50
2022-09-23T03:42:22.971Z,9.45
2022-09-23T03:44:53.417Z,9.45
2022-09-23T03:47:20.718Z,9.43
2022-09-23T03:49:54.014Z,9.54
2022-09-23T03:52:23.639Z,9.59
2022-09-23T03:54:51.359Z,9.47
2022-09-23T03:57:19.471Z,9.50
2022-09-23T03:59:49.904Z,9.29
2022-09-23T04:02:17.064Z,9.42
2022-09-23T04:04:43.773Z,9.43
2022-09-23T04:07:10.854Z,9.43
2022-09-23T04:09:40.517Z,9.38
2022-09-23T04:12:07.221Z,9.50
2022-09-23T04:14:33.343Z,9.38
2022-09-23T04:16:59.548Z,9.47
2022-09-23T04:19:34.686Z,9.26
2022-09-23T04:22:04.618Z,8.95
2022-09-23T04:24:33.747Z,9.33
2022-09-23T04:27:03.366Z,9.25
2022-09-23T04:29:33.099Z,9.04
2022-09-23T04:32:03.562Z,8.81
2022-09-23T04:34:32.983Z,9.16
2022-09-23T04:37:06.836Z,9.19
2022-09-23T04:39:36.519Z,9.23
2022-09-23T04:42:06.436Z,9.21
2022-09-23T04:44:36.078Z,9.12
2022-09-23T04:47:06.715Z,9.21
2022-09-23T04:49:36.430Z,9.33
2022-09-23T04:52:07.416Z,9.18
2022-09-23T04:54:36.606Z,8.82
2022-09-23T04:57:06.525Z,9.24
2022-09-23T04:59:36.545Z,9.20
2022-09-23T05:02:05.398Z,8.03
2022-09-23T05:04:39.182Z,8.51
2022-09-23T05:07:09.883Z,8.65
2022-09-23T05:09:38.298Z,7.64
2022-09-23T05:12:07.944Z,8.62
2022-09-23T05:14:38.311Z,6.52
2022-09-23T05:17:08.510Z,8.86
2022-09-23T05:19:37.966Z,9.01
2022-09-23T05:22:09.898Z,9.17
2022-09-23T05:24:40.261Z,9.17
2022-09-23T05:27:09.985Z,8.26
2022-09-23T05:29:40.372Z,9.05
2022-09-23T05:32:10.076Z,9.02
2022-09-23T05:34:39.662Z,9.08
2022-09-23T05:37:09.719Z,8.53
2022-09-23T05:39:39.259Z,9.26
2022-09-23T05:42:09.460Z,9.35
2022-09-23T05:44:38.592Z,9.32
2022-09-23T05:47:08.069Z,9.48
2022-09-23T05:49:58.472Z,8.99
2022-09-23T05:52:25.452Z,9.63
2022-09-23T05:54:51.927Z,9.52
2022-09-23T05:57:25.791Z,9.55
2022-09-23T05:59:51.820Z,9.48
2022-09-23T06:02:18.263Z,9.55
2022-09-23T06:04:44.755Z,9.35
2022-09-23T06:07:19.073Z,9.54
2022-09-23T06:09:45.167Z,9.61
2022-09-23T06:12:13.397Z,9.76
2022-09-23T06:14:39.570Z,9.82
2022-09-23T06:17:13.481Z,9.85
2022-09-23T06:19:42.463Z,10.11
2022-09-23T06:22:16.111Z,9.37
2022-09-23T06:24:42.265Z,9.72
2022-09-23T06:27:12.702Z,10.02
2022-09-23T06:29:42.172Z,9.86
2022-09-23T06:32:11.799Z,9.86
2022-09-23T06:34:51.662Z,9.42
2022-09-23T06:37:20.475Z,9.57
2022-09-23T06:39:47.642Z,9.94
2022-09-23T06:42:15.877Z,8.96
2022-09-23T06:44:44.626Z,9.84
2022-09-23T06:47:14.929Z,10.18
2022-09-23T06:49:44.576Z,10.03
2022-09-23T06:52:17.871Z,10.32
2022-09-23T06:54:47.426Z,10.31
2022-09-23T06:57:17.394Z,10.53
2022-09-23T06:59:47.452Z,10.47
2022-09-23T07:02:18.381Z,10.24
2022-09-23T07:04:47.683Z,10.53
2022-09-23T07:07:17.962Z,10.50
2022-09-23T07:09:47.412Z,10.56
2022-09-23T07:12:16.701Z,10.60
2022-09-23T07:14:46.412Z,10.76
2022-09-23T07:17:15.858Z,10.75
2022-09-23T07:19:48.813Z,10.86
2022-09-23T07:22:19.103Z,10.90
2022-09-23T07:24:48.574Z,10.94
2022-09-23T07:27:19.275Z,11.14
2022-09-23T07:29:51.589Z,9.71
2022-09-23T07:32:19.244Z,11.76
2022-09-23T07:34:49.268Z,11.30
2022-09-23T07:37:19.365Z,11.92
2022-09-23T07:39:50.388Z,12.16
2022-09-23T07:42:20.046Z,12.17
2022-09-23T07:44:51.736Z,12.44
2022-09-23T07:47:23.126Z,12.73
2022-09-23T07:49:53.478Z,12.87
2022-09-23T07:52:23.068Z,13.27
2022-09-23T07:54:53.448Z,12.95
2022-09-23T07:57:23.354Z,13.22
2022-09-23T07:59:52.678Z,13.38
2022-09-23T08:02:22.628Z,13.15
2022-09-23T08:04:55.783Z,13.52
2022-09-23T08:07:25.707Z,13.85
2022-09-23T08:09:55.595Z,14.14
2022-09-23T08:12:25.197Z,14.33
2022-09-23T08:14:56.260Z,14.09
2022-09-23T08:17:26.064Z,13.84
2022-09-23T08:19:55.457Z,14.15
2022-09-23T08:22:29.090Z,14.07
2022-09-23T08:24:58.354Z,13.84
2022-09-23T08:27:28.646Z,13.83
2022-09-23T08:29:58.532Z,14.02
2022-09-23T08:32:27.573Z,14.03
2022-09-23T08:34:57.044Z,13.40
2022-09-23T08:37:26.606Z,13.81
2022-09-23T08:39:56.744Z,13.98
2022-09-23T08:42:31.750Z,13.87
2022-09-23T08:44:59.968Z,13.75
2022-09-23T08:47:29.814Z,13.96
2022-09-23T08:50:23.333Z,14.36
2022-09-23T08:52:58.239Z,14.54
2022-09-23T08:55:37.282Z,14.41
2022-09-23T08:58:26.041Z,14.78
2022-09-23T09:01:23.283Z,15.36
2022-09-23T09:04:12.609Z,15.01
2022-09-23T09:06:54.117Z,14.39
2022-09-23T09:09:43.199Z,15.04
2022-09-23T09:12:22.164Z,15.51
2022-09-23T09:15:06.234Z,15.74
2022-09-23T09:17:40.106Z,15.74
2022-09-23T09:20:18.192Z,16.17
2022-09-23T09:22:59.246Z,16.15
2022-09-23T09:25:47.680Z,14.96
2022-09-23T09:28:19.720Z,15.05
2022-09-23T09:30:55.245Z,15.26
2022-09-23T09:33:36.193Z,15.51
2022-09-23T09:36:30.845Z,16.46
2022-09-23T09:39:01.037Z,15.94
2022-09-23T09:41:31.098Z,16.55
2022-09-23T09:44:02.904Z,16.15
2022-09-23T09:46:51.370Z,16.65
2022-09-23T09:49:43.164Z,16.31
2022-09-23T09:52:26.114Z,16.62
2022-09-23T09:55:16.508Z,17.16
2022-09-23T09:57:44.163Z,17.05
2022-09-23T10:00:21.487Z,17.77
2022-09-23T10:02:55.925Z,16.97
2022-09-23T10:05:34.967Z,16.48
2022-09-23T10:08:27.931Z,16.66
2022-09-23T10:10:57.512Z,17.17
2022-09-23T10:13:31.989Z,17.19
2022-09-23T10:16:03.232Z,17.34
2022-09-23T10:18:37.399Z,17.45
2022-09-23T10:21:15.427Z,17.26
2022-09-23T10:23:51.868Z,17.19
2022-09-23T10:26:41.485Z,17.15
2022-09-23T10:29:36.126Z,17.69
2022-09-23T10:32:17.125Z,18.04
2022-09-23T10:34:46.005Z,18.39
2022-09-23T10:37:19.054Z,17.98
2022-09-23T10:40:17.589Z,17.90
2022-09-23T10:43:34.347Z,18.45
2022-09-23T10:46:39.857Z,18.46
2022-09-23T10:49:32.877Z,17.62
2022-09-23T10:52:09.944Z,17.73
2022-09-23T10:54:51.003Z,17.96
2022-09-23T10:57:39.773Z,18.00
2022-09-23T11:00:28.142Z,17.89
2022-09-23T11:03:31.497Z,17.34
2022-09-23T11:06:14.236Z,17.19
2022-09-23T11:09:09.670Z,17.41
2022-09-23T11:11:39.513Z,18.13
2022-09-23T11:14:16.398Z,17.75
2022-09-23T11:17:07.659Z,17.66
2022-09-23T11:20:08.927Z,18.10
2022-09-23T11:23:02.488Z,17.91
2022-09-23T11:25:49.855Z,18.35
2022-09-23T11:28:37.216Z,18.54
2022-09-23T11:31:20.599Z,18.62
2022-09-23T11:33:58.301Z,18.59
2022-09-23T11:36:38.472Z,18.88
2022-09-23T11:39:24.824Z,19.02
2022-09-23T11:41:53.786Z,19.11
2022-09-23T11:44:27.769Z,18.91
2022-09-23T11:47:18.941Z,19.34
2022-09-23T11:49:54.534Z,18.96
2022-09-23T11:52:23.547Z,18.37
2022-09-23T11:55:16.657Z,19.47
2022-09-23T11:58:21.370Z,18.85
2022-09-23T12:01:06.347Z,18.79
2022-09-23T12:03:44.399Z,18.82
2022-09-23T12:06:19.616Z,18.75
2022-09-23T12:08:54.271Z,18.66
2022-09-23T12:11:30.843Z,19.45
2022-09-23T12:14:26.499Z,19.66
2022-09-23T12:17:47.055Z,19.95
2022-09-23T12:20:27.447Z,19.69
2022-09-23T12:23:12.580Z,19.14
2022-09-23T12:25:49.466Z,19.30
2022-09-23T12:28:23.692Z,19.16
2022-09-23T12:30:57.639Z,18.78
2022-09-23T12:33:30.463Z,18.46
2022-09-23T12:36:05.769Z,18.85
2022-09-23T12:39:02.535Z,18.70
2022-09-23T12:41:36.852Z,18.82
2022-09-23T12:44:12.822Z,18.69
2022-09-23T12:46:43.982Z,17.92
2022-09-23T12:49:28.607Z,18.17
2022-09-23T12:52:10.311Z,18.60
2022-09-23T12:54:41.819Z,18.66
2022-09-23T12:57:10.356Z,18.69
2022-09-23T13:00:21.887Z,18.65
2022-09-23T13:03:18.474Z,18.67
2022-09-23T13:06:10.586Z,18.68
2022-09-23T13:08:41.832Z,18.67
2022-09-23T13:11:27.751Z,18.87
2022-09-23T13:14:01.173Z,18.50
2022-09-23T13:16:41.400Z,18.60
2022-09-23T13:19:25.626Z,18.92
2022-09-23T13:22:08.190Z,19.08
2022-09-23T13:24:45.835Z,18.82
2022-09-23T13:27:20.111Z,19.52
2022-09-23T13:29:55.152Z,19.62
2022-09-23T13:32:29.244Z,19.48
2022-09-23T13:35:04.291Z,20.04
2022-09-23T13:37:47.371Z,19.69
2022-09-23T13:40:25.933Z,20.23
2022-09-23T13:43:01.606Z,20.31
2022-09-23T13:45:36.393Z,20.10
2022-09-23T13:48:12.388Z,20.52
2022-09-23T13:50:52.540Z,20.39
2022-09-23T13:53:29.562Z,20.42
2022-09-23T13:56:22.090Z,19.72
2022-09-23T13:59:24.898Z,20.15
2022-09-23T14:02:12.754Z,20.41
2022-09-23T14:04:43.112Z,20.18
2022-09-23T14:07:15.182Z,19.98
2022-09-23T14:09:49.650Z,19.39
2022-09-23T14:12:21.508Z,19.44
2022-09-23T14:14:51.875Z,19.24
2022-09-23T14:17:22.255Z,19.06
2022-09-23T14:19:52.241Z,18.97
2022-09-23T14:22:29.108Z,19.16
2022-09-23T14:24:58.998Z,19.04
2022-09-23T14:27:35.734Z,19.10
2022-09-23T14:30:06.096Z,18.73
2022-09-23T14:32:35.875Z,18.75
2022-09-23T14:35:17.559Z,17.73
2022-09-23T14:38:09.310Z,18.73
2022-09-23T14:41:14.761Z,18.68
2022-09-23T14:43:56.425Z,18.75
2022-09-23T14:46:28.219Z,18.87
2022-09-23T14:49:02.602Z,18.58
2022-09-23T14:51:31.330Z,18.61
2022-09-23T14:54:29.138Z,18.65
2022-09-23T14:57:00.769Z,18.49
2022-09-23T14:59:36.382Z,18.43
2022-09-23T15:02:32.856Z,18.72
2022-09-23T15:05:09.410Z,18.46
2022-09-23T15:07:39.319Z,18.88
2022-09-23T15:10:17.080Z,18.80
2022-09-23T15:12:49.688Z,18.79
2022-09-23T15:15:24.008Z,18.57
2022-09-23T15:17:53.923Z,18.63
2022-09-23T15:20:25.950Z,18.60
2022-09-23T15:22:55.796Z,18.57
2022-09-23T15:25:35.081Z,18.62
2022-09-23T15:28:12.383Z,18.37
2022-09-23T15:30:39.023Z,18.24
2022-09-23T15:33:05.906Z,18.33
2022-09-23T15:35:35.593Z,17.96
2022-09-23T15:38:04.955Z,18.49
2022-09-23T15:40:35.886Z,18.42
2022-09-23T15:43:22.569Z,17.53
2022-09-23T15:46:05.401Z,18.27
2022-09-23T15:48:38.617Z,18.34
2022-09-23T15:51:13.970Z,18.37
2022-09-23T15:53:43.690Z,18.40
2022-09-23T15:56:09.721Z,18.15
2022-09-23T15:58:36.046Z,18.19
2022-09-23T16:01:06.460Z,18.20
2022-09-23T16:03:36.741Z,17.92
2022-09-23T16:06:03.750Z,17.68
2022-09-23T16:08:32.049Z,18.26
2022-09-23T16:11:02.503Z,17.82
2022-09-23T16:13:29.179Z,18.19
2022-09-23T16:15:55.564Z,17.76
2022-09-23T16:18:21.757Z,18.13
2022-09-23T16:20:51.459Z,16.99
2022-09-23T16:23:35.222Z,18.16
2022-09-23T16:26:06.885Z,18.06
2022-09-23T16:28:36.430Z,17.92
2022-09-23T16:31:05.385Z,17.79
2022-09-23T16:33:31.636Z,17.87
2022-09-23T16:36:00.092Z,17.27
2022-09-23T16:38:31.268Z,16.97
2022-09-23T16:41:00.444Z,17.45
2022-09-23T16:43:30.854Z,17.23
2022-09-23T16:45:57.169Z,17.64
2022-09-23T16:48:26.830Z,17.04
2022-09-23T16:50:53.231Z,17.12
2022-09-23T16:53:20.216Z,16.88
2022-09-23T16:55:46.513Z,17.31
2022-09-23T16:58:16.464Z,16.98
2022-09-23T17:01:02.161Z,17.43
2022-09-23T17:03:40.462Z,17.45
2022-09-23T17:06:14.588Z,17.50
2022-09-23T17:08:41.921Z,17.15
2022-09-23T17:11:10.107Z,17.49
2022-09-23T17:13:41.728Z,17.13
2022-09-23T17:16:27.948Z,17.46
2022-09-23T17:18:55.109Z,17.40
2022-09-23T17:21:26.362Z,17.41
2022-09-23T17:23:57.150Z,17.34
2022-09-23T17:26:24.663Z,17.33
2022-09-23T17:28:53.590Z,17.23
2022-09-23T17:31:24.294Z,17.20
2022-09-23T17:33:54.752Z,16.00
2022-09-23T17:36:21.291Z,17.21
2022-09-23T17:38:55.410Z,17.03
2022-09-23T17:41:25.317Z,17.15
2022-09-23T17:43:54.669Z,17.12
2022-09-23T17:46:20.865Z,17.11
2022-09-23T17:48:54.740Z,17.12
2022-09-23T17:51:24.803Z,17.09
2022-09-23T17:53:51.076Z,15.80
2022-09-23T17:56:21.469Z,17.07
2022-09-23T17:58:52.832Z,17.05
2022-09-23T18:01:24.558Z,16.91
2022-09-23T18:03:59.175Z,16.94
2022-09-23T18:06:34.807Z,16.91
2022-09-23T18:09:06.260Z,16.92
2022-09-23T18:11:37.652Z,16.87
2022-09-23T18:14:18.964Z,16.90
2022-09-23T18:16:52.755Z,16.90
2022-09-23T18:19:23.971Z,16.87
2022-09-23T18:21:55.644Z,16.84
2022-09-23T18:24:34.077Z,16.81
2022-09-23T18:27:08.034Z,16.80
2022-09-23T18:29:38.114Z,16.42
2022-09-23T18:32:13.358Z,16.62
2022-09-23T18:34:44.710Z,16.70
2022-09-23T18:37:16.127Z,16.26
2022-09-23T18:39:47.890Z,16.15
2022-09-23T18:42:19.650Z,16.61
2022-09-23T18:44:57.657Z,16.42
2022-09-23T18:47:46.204Z,16.53
2022-09-23T18:50:38.586Z,16.15
2022-09-23T18:53:09.394Z,16.44
2022-09-23T18:55:40.025Z,16.54
2022-09-23T18:58:09.713Z,16.42
2022-09-23T19:00:38.799Z,16.53
2022-09-23T19:03:08.359Z,16.48
2022-09-23T19:05:38.015Z,16.42
2022-09-23T19:08:08.210Z,16.39
2022-09-23T19:10:37.709Z,16.46
2022-09-23T19:13:07.578Z,16.42
2022-09-23T19:15:40.262Z,16.35
2022-09-23T19:18:09.444Z,16.42
2022-09-23T19:20:51.043Z,12.88
2022-09-23T19:23:23.108Z,16.38
2022-09-23T19:25:49.128Z,16.19
2022-09-23T19:28:15.263Z,15.76
2022-09-23T19:30:41.455Z,16.14
2022-09-23T19:33:15.483Z,16.11
2022-09-23T19:35:52.764Z,16.28
2022-09-23T19:38:20.609Z,16.29
2022-09-23T19:40:55.076Z,16.35
2022-09-23T19:43:21.223Z,16.23
2022-09-23T19:45:53.939Z,16.00
2022-09-23T19:48:20.172Z,16.23
2022-09-23T19:50:49.632Z,16.02
2022-09-23T19:53:16.073Z,15.95
2022-09-23T19:55:45.777Z,16.07
2022-09-23T19:58:15.280Z,15.93
2022-09-23T20:00:45.157Z,15.34
2022-09-23T20:03:15.236Z,15.86
2022-09-23T20:05:44.107Z,15.92
2022-09-23T20:08:13.434Z,15.30
2022-09-23T20:10:46.057Z,15.34
2022-09-23T20:13:13.875Z,15.23
2022-09-23T20:15:44.655Z,15.30
2022-09-23T20:18:19.961Z,15.92
2022-09-23T20:20:55.479Z,15.32
2022-09-23T20:23:21.646Z,15.77
2022-09-23T20:26:14.652Z,15.54
2022-09-23T20:28:40.898Z,15.52
2022-09-23T20:31:07.158Z,15.63
2022-09-23T20:33:40.942Z,15.62
2022-09-23T20:36:08.793Z,15.36
2022-09-23T20:38:35.599Z,15.37
2022-09-23T20:41:02.194Z,15.60
2022-09-23T20:43:34.848Z,15.44
2022-09-23T20:46:02.468Z,15.35
2022-09-23T20:48:30.100Z,15.28
2022-09-23T20:51:00.663Z,15.48
2022-09-23T20:53:27.979Z,15.60
2022-09-23T20:55:57.428Z,15.62
2022-09-23T20:58:27.084Z,14.45
2022-09-23T21:01:01.111Z,15.65
2022-09-23T21:03:28.698Z,15.56
2022-09-23T21:05:55.224Z,15.65
2022-09-23T21:08:25.009Z,15.62
2022-09-23T21:10:59.022Z,15.53
2022-09-23T21:13:27.928Z,15.44
2022-09-23T21:16:04.105Z,14.78
2022-09-23T21:18:30.688Z,14.54
2022-09-23T21:20:58.517Z,14.93
2022-09-23T21:23:30.418Z,15.16
2022-09-23T21:26:05.950Z,14.94
2022-09-23T21:28:42.624Z,11.72
2022-09-23T21:31:21.761Z,15.14
2022-09-23T21:33:52.072Z,15.30
2022-09-23T21:36:23.429Z,15.20
2022-09-23T21:38:53.235Z,14.82
2022-09-23T21:41:19.676Z,14.90
2022-09-23T21:43:46.744Z,15.28
2022-09-23T21:46:21.693Z,15.24
2022-09-23T21:48:49.539Z,14.39
2022-09-23T21:51:18.413Z,14.63
2022-09-23T21:53:56.094Z,14.92
2022-09-23T21:56:28.573Z,14.12
2022-09-23T21:58:55.898Z,14.79
2022-09-23T22:01:24.754Z,14.65
2022-09-23T22:04:06.983Z,14.60
2022-09-23T22:06:37.373Z,14.81
2022-09-23T22:09:08.164Z,14.57
2022-09-23T22:11:57.495Z,13.98
2022-09-23T22:14:27.362Z,14.66
2022-09-23T22:17:02.968Z,14.64
2022-09-23T22:19:34.711Z,14.91
2022-09-23T22:22:15.024Z,14.98
2022-09-23T22:24:46.252Z,13.72
2022-09-23T22:27:18.042Z,14.93
2022-09-23T22:30:07.298Z,14.89
2022-09-23T22:32:40.593Z,14.85
2022-09-23T22:35:17.027Z,14.80
2022-09-23T22:37:53.952Z,14.80
2022-09-23T22:40:23.581Z,14.79
2022-09-23T22:42:53.756Z,14.62
2022-09-23T22:45:24.258Z,14.27
2022-09-23T22:47:54.023Z,14.30
2022-09-23T22:50:23.543Z,14.41
2022-09-23T22:52:53.660Z,13.99
2022-09-23T22:55:30.129Z,13.89
2022-09-23T22:58:15.348Z,14.14
2022-09-23T23:00:45.829Z,14.32
2022-09-23T23:03:12.430Z,14.05
2022-09-23T23:05:41.427Z,12.56
2022-09-23T23:08:12.330Z,13.32
2022-09-23T23:10:40.210Z,13.48
2022-09-23T23:13:10.094Z,13.83
2022-09-23T23:15:39.927Z,14.31
2022-09-23T23:18:09.306Z,14.26
2022-09-23T23:20:43.260Z,14.30
2022-09-23T23:23:13.050Z,13.95
2022-09-23T23:25:42.599Z,14.21
2022-09-23T23:28:12.252Z,14.21
2022-09-23T23:30:41.882Z,14.30
2022-09-23T23:33:11.667Z,14.35
2022-09-23T23:35:49.673Z,13.06
2022-09-23T23:38:22.754Z,14.22
2022-09-23T23:40:51.751Z,14.23
2022-09-23T23:43:18.941Z,14.21
2022-09-23T23:45:45.813Z,14.15
2022-09-23T23:48:19.084Z,13.91
2022-09-23T23:50:56.015Z,14.08
2022-09-23T23:53:23.076Z,13.96
2022-09-23T23:55:56.917Z,13.88
2022-09-23T23:58:23.046Z,13.63
